createdAt,value
2022-09-03T04:31:18.765Z,99.90
2022-09-03T04:33:45.920Z,99.90
2022-09-03T04:36:15.188Z,99.90
2022-09-03T04:38:44.001Z,99.90
2022-09-03T04:41:12.967Z,99.90
2022-09-03T04:43:42.407Z,99.90
2022-09-03T04:46:17.716Z,99.90
2022-09-03T04:48:51.272Z,99.90
2022-09-03T04:51:21.879Z,99.90
2022-09-03T04:53:54.239Z,99.90
2022-09-03T04:56:23.966Z,99.90
2022-09-03T04:58:56.671Z,99.90
2022-09-03T05:01:25.848Z,99.90
2022-09-03T05:03:55.472Z,99.90
2022-09-03T05:06:22.283Z,99.90
2022-09-03T05:08:53.925Z,99.90
2022-09-03T05:11:21.439Z,99.90
2022-09-03T05:13:49.921Z,99.90
2022-09-03T05:16:17.284Z,99.90
2022-09-03T05:18:45.084Z,99.90
2022-09-03T05:21:14.271Z,99.90
2022-09-03T05:23:43.689Z,99.90
2022-09-03T05:26:15.187Z,99.90
2022-09-03T05:28:43.158Z,99.90
2022-09-03T05:31:12.792Z,99.90
2022-09-03T05:33:42.445Z,99.90
2022-09-03T05:36:12.151Z,99.90
2022-09-03T05:38:39.221Z,99.90
2022-09-03T05:41:08.560Z,99.90
2022-09-03T05:43:36.382Z,99.90
2022-09-03T05:46:09.532Z,99.90
2022-09-03T05:48:37.996Z,99.90
2022-09-03T05:51:16.363Z,99.90
2022-09-03T05:53:44.859Z,99.90
2022-09-03T05:56:18.124Z,99.90
2022-09-03T05:58:52.753Z,99.90
2022-09-03T06:01:22.793Z,99.90
2022-09-03T06:04:01.829Z,99.90
2022-09-03T06:06:30.983Z,99.90
2022-09-03T06:09:03.939Z,99.90
2022-09-03T06:11:32.881Z,99.90
2022-09-03T06:14:01.817Z,99.90
2022-09-03T06:16:31.657Z,99.90
2022-09-03T06:19:00.042Z,99.90
2022-09-03T06:21:27.355Z,99.90
2022-09-03T06:23:56.976Z,99.90
2022-09-03T06:26:28.649Z,99.90
2022-09-03T06:28:56.908Z,99.90
2022-09-03T06:31:25.275Z,99.90
2022-09-03T06:33:53.654Z,99.90
2022-09-03T06:36:22.629Z,99.90
2022-09-03T06:38:55.846Z,99.90
2022-09-03T06:41:25.268Z,99.90
2022-09-03T06:44:02.276Z,99.90
2022-09-03T06:46:34.862Z,99.90
2022-09-03T06:49:01.783Z,99.90
2022-09-03T06:51:31.120Z,99.90
2022-09-03T06:54:03.874Z,99.90
2022-09-03T06:56:32.346Z,99.90
2022-09-03T06:59:05.598Z,99.90
2022-09-03T07:01:33.372Z,99.90
2022-09-03T07:04:02.394Z,99.90
2022-09-03T07:06:37.830Z,99.90
2022-09-03T07:09:06.007Z,99.90
2022-09-03T07:11:33.867Z,99.90
2022-09-03T07:14:00.750Z,99.90
2022-09-03T07:16:46.487Z,99.90
2022-09-03T07:19:13.670Z,99.90
2022-09-03T07:21:45.254Z,99.90
2022-09-03T07:24:13.460Z,99.90
2022-09-03T07:26:44.661Z,99.90
2022-09-03T07:29:11.983Z,99.90
2022-09-03T07:31:41.719Z,99.90
2022-09-03T07:34:11.600Z,99.90
2022-09-03T07:36:43.004Z,99.90
2022-09-03T07:39:11.774Z,99.90
2022-09-03T07:41:39.407Z,99.90
2022-09-03T07:44:08.418Z,99.90
2022-09-03T07:46:37.906Z,99.90
2022-09-03T07:49:06.358Z,99.90
2022-09-03T07:51:38.563Z,99.90
2022-09-03T07:54:09.189Z,99.90
2022-09-03T07:56:36.751Z,99.90
2022-09-03T07:59:04.509Z,99.90
2022-09-03T08:01:32.979Z,99.90
2022-09-03T08:04:00.882Z,99.90
2022-09-03T08:06:29.643Z,99.90
2022-09-03T08:09:04.145Z,99.90
2022-09-03T08:11:32.890Z,99.90
2022-09-03T08:14:02.968Z,99.90
2022-09-03T08:16:32.574Z,99.90
2022-09-03T08:18:59.794Z,99.90
2022-09-03T08:21:28.283Z,99.90
2022-09-03T08:24:03.047Z,99.90
2022-09-03T08:26:38.835Z,99.90
2022-09-03T08:29:06.110Z,99.90
2022-09-03T08:31:36.663Z,99.90
2022-09-03T08:34:06.779Z,99.90
2022-09-03T08:36:36.450Z,99.90
2022-09-03T08:39:09.684Z,99.90
2022-09-03T08:41:53.162Z,99.90
2022-09-03T08:44:47.242Z,95.80
2022-09-03T08:47:17.182Z,93.70
2022-09-03T08:50:09.308Z,92.20
2022-09-03T08:52:48.925Z,86.00
2022-09-03T08:55:43.442Z,83.80
2022-09-03T08:58:22.226Z,82.50
2022-09-03T09:01:01.574Z,81.20
2022-09-03T09:03:28.605Z,83.40
2022-09-03T09:06:08.121Z,81.00
2022-09-03T09:08:56.459Z,77.30
2022-09-03T09:11:34.423Z,73.00
2022-09-03T09:14:07.018Z,69.10
2022-09-03T09:16:42.537Z,66.30
2022-09-03T09:19:18.408Z,63.10
2022-09-03T09:22:07.853Z,63.20
2022-09-03T09:24:42.385Z,63.00
2022-09-03T09:27:14.036Z,64.90
2022-09-03T09:29:43.607Z,62.30
2022-09-03T09:32:12.854Z,62.90
2022-09-03T09:34:41.390Z,63.50
2022-09-03T09:37:13.354Z,62.40
2022-09-03T09:39:41.875Z,61.10
2022-09-03T09:42:11.978Z,58.40
2022-09-03T09:44:43.317Z,59.30
2022-09-03T09:47:21.655Z,62.90
2022-09-03T09:49:56.893Z,66.60
2022-09-03T09:52:27.148Z,65.90
2022-09-03T09:55:08.041Z,67.90
2022-09-03T09:57:34.924Z,73.70
2022-09-03T10:00:10.311Z,79.20
2022-09-03T10:02:40.411Z,84.90
2022-09-03T10:05:20.112Z,91.30
2022-09-03T10:07:57.330Z,94.90
2022-09-03T10:10:25.671Z,97.00
2022-09-03T10:13:08.402Z,99.90
2022-09-03T10:16:01.395Z,99.90
2022-09-03T10:18:39.270Z,99.90
2022-09-03T10:21:46.985Z,99.90
2022-09-03T10:24:16.083Z,99.90
2022-09-03T10:26:47.115Z,99.90
2022-09-03T10:29:21.898Z,99.90
2022-09-03T10:32:10.950Z,99.90
2022-09-03T10:34:58.785Z,99.90
2022-09-03T10:37:52.903Z,99.90
2022-09-03T10:40:25.065Z,99.90
2022-09-03T10:42:54.804Z,99.90
2022-09-03T10:45:40.353Z,99.90
2022-09-03T10:48:36.254Z,99.90
2022-09-03T10:51:13.550Z,99.90
2022-09-03T10:54:18.812Z,99.90
2022-09-03T10:57:12.051Z,99.90
2022-09-03T11:00:04.755Z,99.90
2022-09-03T11:03:07.920Z,99.90
2022-09-03T11:05:42.239Z,99.90
2022-09-03T11:08:28.414Z,99.90
2022-09-03T11:11:03.509Z,99.90
2022-09-03T11:13:35.737Z,99.90
2022-09-03T11:16:12.045Z,99.90
2022-09-03T11:18:51.613Z,99.90
2022-09-03T11:21:24.065Z,99.90
2022-09-03T11:24:00.503Z,99.90
2022-09-03T11:26:27.874Z,99.90
2022-09-03T11:29:18.300Z,99.90
2022-09-03T11:31:50.732Z,99.90
2022-09-03T11:34:33.175Z,99.90
2022-09-03T11:37:45.245Z,99.90
2022-09-03T11:40:18.308Z,99.90
2022-09-03T11:42:45.895Z,99.90
2022-09-03T11:45:32.938Z,99.90
2022-09-03T11:47:59.763Z,99.90
2022-09-03T11:50:29.364Z,99.90
2022-09-03T11:53:24.499Z,99.90
2022-09-03T11:55:55.833Z,99.90
2022-09-03T11:58:42.891Z,99.90
2022-09-03T12:01:16.480Z,99.90
2022-09-03T12:03:54.189Z,99.90
2022-09-03T12:06:48.755Z,99.90
2022-09-03T12:09:23.374Z,99.90
2022-09-03T12:12:06.192Z,99.90
2022-09-03T12:14:37.678Z,99.90
2022-09-03T12:17:30.440Z,99.90
2022-09-03T12:19:58.943Z,99.90
2022-09-03T12:22:31.364Z,99.90
2022-09-03T12:25:17.159Z,99.90
2022-09-03T12:27:46.407Z,99.90
2022-09-03T12:30:19.583Z,99.90
2022-09-03T12:32:47.871Z,99.90
2022-09-03T12:38:10.532Z,99.90
2022-09-03T12:43:38.945Z,99.90
2022-09-03T12:46:15.295Z,99.90
2022-09-03T12:51:56.913Z,99.90
2022-09-03T12:54:27.082Z,99.90
2022-09-03T12:56:58.422Z,99.90
2022-09-03T12:59:29.133Z,99.90
2022-09-03T13:02:00.638Z,99.90
2022-09-03T13:04:36.254Z,99.90
2022-09-03T13:07:13.954Z,99.90
2022-09-03T13:09:42.194Z,99.90
2022-09-03T13:12:23.750Z,99.70
2022-09-03T13:15:07.111Z,99.80
2022-09-03T13:17:57.750Z,99.90
2022-09-03T13:20:53.359Z,98.80
2022-09-03T13:23:44.098Z,98.90
2022-09-03T13:26:28.966Z,97.40
2022-09-03T13:29:04.327Z,98.10
2022-09-03T13:31:48.998Z,98.60
2022-09-03T13:34:33.796Z,96.60
2022-09-03T13:37:32.066Z,98.00
2022-09-03T13:40:04.216Z,99.00
2022-09-03T13:42:34.311Z,99.80
2022-09-03T13:45:29.858Z,99.90
2022-09-03T13:48:36.946Z,98.70
2022-09-03T13:51:08.355Z,98.30
2022-09-03T13:53:44.904Z,97.20
2022-09-03T13:56:53.995Z,97.10
2022-09-03T13:59:46.289Z,97.40
2022-09-03T14:02:36.687Z,96.20
2022-09-03T14:05:15.810Z,95.60
2022-09-03T14:07:56.941Z,96.60
2022-09-03T14:11:09.089Z,96.40
2022-09-03T14:14:06.971Z,97.10
2022-09-03T14:16:47.041Z,95.50
2022-09-03T14:19:31.817Z,95.10
2022-09-03T14:22:11.782Z,94.20
2022-09-03T14:24:53.458Z,94.10
2022-09-03T14:27:31.613Z,93.70
2022-09-03T14:30:09.618Z,94.80
2022-09-03T14:32:48.317Z,93.30
2022-09-03T14:35:39.822Z,93.60
2022-09-03T14:38:09.924Z,94.00
2022-09-03T14:41:16.826Z,93.60
2022-09-03T14:44:03.025Z,93.30
2022-09-03T14:47:13.275Z,93.30
2022-09-03T14:49:55.108Z,95.20
2022-09-03T14:52:40.807Z,95.50
2022-09-03T14:55:23.038Z,92.70
2022-09-03T14:58:16.221Z,92.50
2022-09-03T15:01:26.859Z,92.80
2022-09-03T15:04:51.519Z,92.40
2022-09-03T15:07:36.612Z,92.30
2022-09-03T15:10:16.831Z,92.40
2022-09-03T15:12:45.341Z,92.30
2022-09-03T15:15:22.591Z,92.40
2022-09-03T15:18:21.307Z,93.40
2022-09-03T15:20:54.212Z,93.90
2022-09-03T15:23:59.928Z,94.40
2022-09-03T15:26:53.694Z,94.50
2022-09-03T15:29:52.075Z,96.00
2022-09-03T15:32:38.542Z,96.30
2022-09-03T15:35:09.535Z,95.50
2022-09-03T15:37:44.485Z,94.10
2022-09-03T15:40:39.186Z,93.90
2022-09-03T15:43:38.452Z,94.90
2022-09-03T15:46:13.794Z,95.90
2022-09-03T15:48:50.543Z,97.60
2022-09-03T15:51:26.597Z,97.60
2022-09-03T15:54:17.474Z,98.00
2022-09-03T15:57:01.612Z,97.20
2022-09-03T15:59:46.874Z,97.00
2022-09-03T16:02:34.324Z,96.90
2022-09-03T16:05:20.863Z,97.20
2022-09-03T16:08:03.486Z,97.00
2022-09-03T16:10:42.882Z,96.70
2022-09-03T16:13:32.738Z,95.50
2022-09-03T16:16:05.837Z,96.30
2022-09-03T16:19:10.005Z,96.10
2022-09-03T16:21:45.725Z,96.90
2022-09-03T16:24:33.789Z,97.00
2022-09-03T16:27:09.467Z,97.70
2022-09-03T16:29:38.355Z,97.90
2022-09-03T16:32:26.975Z,98.20
2022-09-03T16:35:05.833Z,98.20
2022-09-03T16:37:39.092Z,98.40
2022-09-03T16:40:13.256Z,98.10
2022-09-03T16:43:39.730Z,98.90
2022-09-03T16:46:30.787Z,98.90
2022-09-03T16:49:00.228Z,99.20
2022-09-03T16:51:32.822Z,99.10
2022-09-03T16:54:12.619Z,99.70
2022-09-03T16:56:46.480Z,99.60
2022-09-03T16:59:28.106Z,99.90
2022-09-03T17:01:55.567Z,99.90
2022-09-03T17:04:35.453Z,99.90
2022-09-03T17:07:17.262Z,99.90
2022-09-03T17:09:59.084Z,99.90
2022-09-03T17:12:48.604Z,99.90
2022-09-03T17:15:32.811Z,99.90
2022-09-03T17:18:10.083Z,99.90
2022-09-03T17:21:04.115Z,99.90
2022-09-03T17:23:38.093Z,99.90
2022-09-03T17:26:19.149Z,99.90
2022-09-03T17:29:16.096Z,99.90
2022-09-03T17:32:11.913Z,99.90
2022-09-03T17:35:03.674Z,99.90
2022-09-03T17:37:40.237Z,99.90
2022-09-03T17:40:10.550Z,99.90
2022-09-03T17:42:40.094Z,99.90
2022-09-03T17:45:37.274Z,99.90
2022-09-03T17:48:51.353Z,99.90
2022-09-03T17:51:27.245Z,99.90
2022-09-03T17:54:09.323Z,99.90
2022-09-03T17:56:46.639Z,99.90
2022-09-03T17:59:32.216Z,99.90
2022-09-03T18:02:06.787Z,99.90
2022-09-03T18:04:50.627Z,99.90
2022-09-03T18:07:42.217Z,99.90
2022-09-03T18:10:09.115Z,99.90
2022-09-03T18:12:50.246Z,99.90
2022-09-03T18:15:39.414Z,99.90
2022-09-03T18:18:19.057Z,99.90
2022-09-03T18:21:24.444Z,99.90
2022-09-03T18:24:21.211Z,99.90
2022-09-03T18:27:17.308Z,99.90
2022-09-03T18:30:07.979Z,99.90
2022-09-03T18:32:53.351Z,99.90
2022-09-03T18:35:38.883Z,99.90
2022-09-03T18:38:24.354Z,99.90
2022-09-03T18:41:22.013Z,99.90
2022-09-03T18:44:35.434Z,99.90
2022-09-03T18:50:56.884Z,99.90
2022-09-03T18:53:44.871Z,99.90
2022-09-03T18:57:09.249Z,99.90
2022-09-03T19:00:19.348Z,99.90
2022-09-03T19:03:19.505Z,99.90
2022-09-03T19:06:26.782Z,99.90
2022-09-03T19:09:34.927Z,99.90
2022-09-03T19:12:59.314Z,99.90
2022-09-03T19:15:58.542Z,99.90
2022-09-03T19:19:02.951Z,99.90
2022-09-03T19:21:59.697Z,99.90
2022-09-03T19:24:50.295Z,99.90
2022-09-03T19:28:04.494Z,99.90
2022-09-03T19:31:23.213Z,99.90
2022-09-03T19:34:40.128Z,99.90
2022-09-03T19:37:36.782Z,99.90
2022-09-03T19:40:37.130Z,99.90
2022-09-03T19:43:36.168Z,99.90
2022-09-03T19:46:45.815Z,99.90
2022-09-03T19:49:57.631Z,99.90
2022-09-03T19:53:14.967Z,99.90
2022-09-03T19:56:07.830Z,99.90
2022-09-03T19:58:57.273Z,99.90
2022-09-03T20:01:48.211Z,99.90
2022-09-03T20:04:34.475Z,99.90
2022-09-03T20:07:25.344Z,99.90
2022-09-03T20:10:13.330Z,99.90
2022-09-03T20:12:45.460Z,99.90
2022-09-03T20:15:12.282Z,99.90
2022-09-03T20:17:57.431Z,99.90
2022-09-03T20:20:43.331Z,99.90
2022-09-03T20:23:33.632Z,99.90
2022-09-03T20:26:43.043Z,99.90
2022-09-03T20:29:47.538Z,99.90
2022-09-03T20:32:57.743Z,99.90
2022-09-03T20:35:44.003Z,99.90
2022-09-03T20:38:48.038Z,99.90
2022-09-03T20:41:14.716Z,99.90
2022-09-03T20:44:08.318Z,99.90
2022-09-03T20:46:53.585Z,99.90
2022-09-03T20:49:37.883Z,99.90
2022-09-03T20:52:18.629Z,99.90
2022-09-03T20:55:04.148Z,99.90
2022-09-03T20:57:48.169Z,99.90
2022-09-03T21:00:18.377Z,99.90
2022-09-03T21:03:00.799Z,99.90
2022-09-03T21:05:37.442Z,99.90
2022-09-03T21:08:15.591Z,99.90
2022-09-03T21:10:42.351Z,99.90
2022-09-03T21:13:09.051Z,99.90
2022-09-03T21:15:43.735Z,99.90
2022-09-03T21:18:48.683Z,99.90
2022-09-03T21:21:36.405Z,99.90
2022-09-03T21:24:18.988Z,99.90
2022-09-03T21:26:51.933Z,99.90
2022-09-03T21:29:27.039Z,99.90
2022-09-03T21:32:04.824Z,99.90
2022-09-03T21:34:43.228Z,99.90
2022-09-03T21:37:12.896Z,99.90
2022-09-03T21:39:48.763Z,99.90
2022-09-03T21:42:42.481Z,99.90
2022-09-03T21:45:19.097Z,99.90
2022-09-03T21:47:51.950Z,99.90
2022-09-03T21:50:25.843Z,99.90
2022-09-03T21:53:00.104Z,99.90
2022-09-03T21:55:59.415Z,99.90
2022-09-03T21:59:08.981Z,99.90
2022-09-03T22:01:53.886Z,99.90
2022-09-03T22:04:20.631Z,99.90
2022-09-03T22:07:15.298Z,99.90
2022-09-03T22:10:03.541Z,99.90
2022-09-03T22:12:46.327Z,99.90
2022-09-03T22:15:14.736Z,99.90
2022-09-03T22:18:05.910Z,99.90
2022-09-03T22:20:34.586Z,99.90
2022-09-03T22:23:12.087Z,99.90
2022-09-03T22:26:08.412Z,99.90
2022-09-03T22:28:49.353Z,99.90
2022-09-03T22:31:45.942Z,99.90
2022-09-03T22:34:30.916Z,99.90
2022-09-03T22:37:06.818Z,99.90
2022-09-03T22:39:37.481Z,99.90
2022-09-03T22:42:44.017Z,99.90
2022-09-03T22:45:46.224Z,99.90
2022-09-03T22:48:31.075Z,99.90
2022-09-03T22:50:59.681Z,99.90
2022-09-03T22:54:00.322Z,99.90
2022-09-03T22:56:33.674Z,99.90
2022-09-03T22:59:15.641Z,99.90
2022-09-03T23:01:48.075Z,99.90
2022-09-03T23:04:28.292Z,99.90
2022-09-03T23:07:14.665Z,99.90
2022-09-03T23:09:44.250Z,99.90
2022-09-03T23:12:20.130Z,99.90
2022-09-03T23:14:51.494Z,99.90
2022-09-03T23:22:59.856Z,99.90
2022-09-03T23:25:45.509Z,99.90
2022-09-03T23:28:31.781Z,99.90
